createdAt,value
2017-11-27T00:01:00.300Z,98024.67
2017-11-27T00:03:26.799Z,98025.91
2017-11-27T00:05:53.144Z,98029.31
2017-11-27T00:08:20.059Z,98027.40
2017-11-27T00:10:46.434Z,98021.23
2017-11-27T00:13:12.712Z,98019.23
2017-11-27T00:15:39.090Z,98026.84
2017-11-27T00:18:05.608Z,98023.09
2017-11-27T00:20:32.042Z,98021.63
2017-11-27T00:22:58.305Z,98024.16
2017-11-27T00:25:24.743Z,98021.78
2017-11-27T00:27:51.035Z,98017.64
2017-11-27T00:30:17.743Z,98020.91
2017-11-27T00:32:44.111Z,98014.41
2017-11-27T00:35:10.555Z,98025.39
2017-11-27T00:37:36.917Z,98021.50
2017-11-27T00:40:03.422Z,98018.97
2017-11-27T00:42:29.812Z,98022.62
2017-11-27T00:44:56.194Z,98014.33
2017-11-27T00:47:22.482Z,98024.09
2017-11-27T00:49:48.871Z,98025.36
2017-11-27T00:52:15.381Z,98017.41
2017-11-27T00:54:41.743Z,98012.51
2017-11-27T00:57:08.184Z,98012.89
2017-11-27T00:59:34.618Z,98010.50
2017-11-27T01:02:01.255Z,98010.23
2017-11-27T01:04:27.585Z,98014.59
2017-11-27T01:06:53.979Z,98015.07
2017-11-27T01:09:20.786Z,98020.30
2017-11-27T01:11:47.276Z,98022.50
2017-11-27T01:14:13.761Z,98026.70
2017-11-27T01:16:40.344Z,98028.36
2017-11-27T01:19:06.674Z,98032.86
2017-11-27T01:21:33.305Z,98032.72
2017-11-27T01:23:59.473Z,98036.11
2017-11-27T01:26:26.029Z,98039.63
2017-11-27T01:28:52.382Z,98045.92
2017-11-27T01:31:18.694Z,98051.44
2017-11-27T01:33:45.233Z,98048.66
2017-11-27T01:36:11.700Z,98057.25
2017-11-27T01:38:37.884Z,98057.10
2017-11-27T01:41:04.221Z,98050.84
2017-11-27T01:43:30.670Z,98053.44
2017-11-27T01:45:58.054Z,98055.69
2017-11-27T01:48:24.542Z,98062.33
2017-11-27T01:50:50.799Z,98058.70
2017-11-27T01:53:17.185Z,98062.09
2017-11-27T01:55:43.590Z,98054.90
2017-11-27T01:58:09.945Z,98060.91
2017-11-27T02:00:36.447Z,98061.62
2017-11-27T02:03:02.839Z,98055.38
2017-11-27T02:05:29.523Z,98055.80
2017-11-27T02:07:55.872Z,98048.28
2017-11-27T02:10:22.494Z,98050.53
2017-11-27T02:12:48.818Z,98055.46
2017-11-27T02:15:15.347Z,98060.64
2017-11-27T02:17:41.819Z,98054.30
2017-11-27T02:20:08.308Z,98058.43
2017-11-27T02:22:34.691Z,98062.13
2017-11-27T02:25:01.034Z,98060.22
2017-11-27T02:27:27.412Z,98062.76
2017-11-27T02:29:53.662Z,98059.69
2017-11-27T02:32:19.988Z,98056.70
2017-11-27T02:34:46.363Z,98055.91
2017-11-27T02:37:12.614Z,98053.67
2017-11-27T02:39:39.138Z,98046.23
2017-11-27T02:42:05.617Z,98049.77
2017-11-27T02:44:31.977Z,98045.75
2017-11-27T02:46:58.521Z,98050.87
2017-11-27T02:49:24.684Z,98050.28
2017-11-27T02:51:51.025Z,98045.67
2017-11-27T02:54:17.346Z,98040.23
2017-11-27T02:56:43.706Z,98045.41
2017-11-27T02:59:10.369Z,98036.40
2017-11-27T03:01:36.697Z,98040.70
2017-11-27T03:04:03.102Z,98042.29
2017-11-27T03:06:29.594Z,98047.02
2017-11-27T03:08:56.063Z,98045.16
2017-11-27T03:11:22.488Z,98042.52
2017-11-27T03:13:48.767Z,98036.86
2017-11-27T03:16:14.969Z,98034.75
2017-11-27T03:18:41.341Z,98036.84
2017-11-27T03:21:07.467Z,98034.56
2017-11-27T03:23:33.595Z,98024.12
2017-11-27T03:25:59.866Z,98025.88
2017-11-27T03:28:26.247Z,98021.99
2017-11-27T03:30:52.321Z,98025.77
2017-11-27T03:33:18.622Z,98028.50
2017-11-27T03:35:45.014Z,98033.72
2017-11-27T03:38:11.348Z,98028.89
2017-11-27T03:40:37.896Z,98024.06
2017-11-27T03:43:04.400Z,98023.38
2017-11-27T03:45:30.663Z,98019.95
2017-11-27T03:47:57.108Z,98015.09
2017-11-27T03:50:23.491Z,98017.36
2017-11-27T03:52:49.810Z,98018.28
2017-11-27T03:55:17.295Z,98019.06
2017-11-27T03:57:43.647Z,98015.73
2017-11-27T04:00:10.003Z,98009.09
2017-11-27T04:02:36.912Z,98007.78
2017-11-27T04:05:03.273Z,98004.73
2017-11-27T04:07:29.659Z,98003.31
2017-11-27T04:09:55.925Z,98011.24
2017-11-27T04:12:22.171Z,98002.95
2017-11-27T04:14:48.820Z,97993.28
2017-11-27T04:17:14.998Z,97991.29
2017-11-27T04:19:41.353Z,97976.97
2017-11-27T04:22:07.983Z,97983.89
2017-11-27T04:24:34.222Z,97982.00
2017-11-27T04:27:00.284Z,97979.80
2017-11-27T04:29:26.400Z,97981.31
2017-11-27T04:31:52.635Z,97981.17
2017-11-27T04:34:18.668Z,97984.09
2017-11-27T04:36:44.698Z,97969.14
2017-11-27T04:39:10.868Z,97977.62
2017-11-27T04:41:37.981Z,97974.96
2017-11-27T04:44:04.157Z,97972.69
2017-11-27T04:46:30.259Z,97972.84
2017-11-27T04:48:56.317Z,97988.00
2017-11-27T04:51:22.408Z,97985.09
2017-11-27T04:53:48.537Z,97980.42
2017-11-27T04:56:14.688Z,97982.63
2017-11-27T04:58:40.655Z,97983.52
2017-11-27T05:01:06.758Z,97980.70
2017-11-27T05:03:32.861Z,97982.47
2017-11-27T05:05:58.902Z,97980.70
2017-11-27T05:08:25.326Z,97983.56
2017-11-27T05:10:51.362Z,97987.25
2017-11-27T05:13:17.411Z,97983.79
2017-11-27T05:15:43.557Z,97982.02
2017-11-27T05:18:10.026Z,97977.11
2017-11-27T05:20:36.134Z,97976.78
2017-11-27T05:23:02.201Z,97979.56
2017-11-27T05:25:28.226Z,97981.76
2017-11-27T05:27:54.272Z,97974.58
2017-11-27T05:30:20.297Z,97979.69
2017-11-27T05:32:46.489Z,97979.63
2017-11-27T05:35:12.584Z,97983.94
2017-11-27T05:37:38.604Z,97982.99
2017-11-27T05:40:04.782Z,97986.36
2017-11-27T05:42:30.921Z,97979.21
2017-11-27T05:44:56.926Z,97975.63
2017-11-27T05:47:23.468Z,97966.79
2017-11-27T05:49:49.576Z,97970.80
2017-11-27T05:52:15.664Z,97970.45
2017-11-27T05:54:41.986Z,97969.25
2017-11-27T05:57:08.145Z,97959.67
2017-11-27T05:59:34.220Z,97969.19
2017-11-27T06:02:00.229Z,97970.84
2017-11-27T06:04:26.430Z,97976.30
2017-11-27T06:06:52.718Z,97974.27
2017-11-27T06:09:19.033Z,97969.59
2017-11-27T06:11:45.585Z,97975.55
2017-11-27T06:14:11.811Z,97968.72
2017-11-27T06:16:37.860Z,97973.45
2017-11-27T06:19:04.185Z,97967.28
2017-11-27T06:21:30.214Z,97968.60
2017-11-27T06:23:56.541Z,97972.63
2017-11-27T06:26:22.667Z,97975.81
2017-11-27T06:28:49.028Z,97971.56
2017-11-27T06:31:15.112Z,97970.73
2017-11-27T06:33:41.111Z,97970.12
2017-11-27T06:36:07.359Z,97965.51
2017-11-27T06:38:33.643Z,97967.81
2017-11-27T06:40:59.752Z,97971.05
2017-11-27T06:43:25.837Z,97964.74
2017-11-27T06:45:51.931Z,97969.25
2017-11-27T06:48:18.400Z,97971.05
2017-11-27T06:50:44.457Z,97966.37
2017-11-27T06:53:10.471Z,97964.89
2017-11-27T06:55:36.595Z,97968.74
2017-11-27T06:58:02.710Z,97967.30
2017-11-27T07:00:28.796Z,97971.64
2017-11-27T07:02:55.142Z,97973.23
2017-11-27T07:05:21.322Z,97976.20
2017-11-27T07:07:47.387Z,97977.80
2017-11-27T07:10:13.472Z,97977.06
2017-11-27T07:12:40.135Z,97977.33
2017-11-27T07:15:07.024Z,97979.85
2017-11-27T07:17:33.291Z,97984.24
2017-11-27T07:19:59.845Z,97991.52
2017-11-27T07:22:26.020Z,97983.33
2017-11-27T07:24:52.195Z,97989.39
2017-11-27T07:27:18.633Z,97994.87
2017-11-27T07:29:44.978Z,97993.88
2017-11-27T07:32:11.586Z,97996.79
2017-11-27T07:34:38.254Z,97999.73
2017-11-27T07:37:04.583Z,97995.27
2017-11-27T07:39:36.703Z,98008.83
2017-11-27T07:42:03.063Z,98009.65
2017-11-27T07:44:29.255Z,98007.89
2017-11-27T07:46:55.511Z,98014.06
2017-11-27T07:49:22.373Z,98009.70
2017-11-27T07:51:48.597Z,98005.17
2017-11-27T07:54:14.796Z,98004.21
2017-11-27T07:56:41.625Z,97999.62
2017-11-27T07:59:08.250Z,97994.08
2017-11-27T08:01:34.551Z,97991.60
2017-11-27T08:04:00.765Z,97988.70
2017-11-27T08:06:28.018Z,97985.98
2017-11-27T08:08:54.102Z,97979.54
2017-11-27T08:11:20.297Z,97977.71
2017-11-27T08:13:46.459Z,97973.90
2017-11-27T08:16:12.688Z,97971.78
2017-11-27T08:18:38.852Z,97969.22
2017-11-27T08:21:04.975Z,97968.68
2017-11-27T08:23:31.130Z,97967.20
2017-11-27T08:25:57.219Z,97969.91
2017-11-27T08:28:23.559Z,97974.36
2017-11-27T08:30:49.748Z,97961.56
2017-11-27T08:33:16.190Z,97967.95
2017-11-27T08:35:42.424Z,97973.88
2017-11-27T08:38:08.741Z,97980.22
2017-11-27T08:40:35.053Z,97976.16
2017-11-27T08:43:01.189Z,97978.68
2017-11-27T08:45:27.729Z,97975.27
2017-11-27T08:47:54.336Z,97976.67
2017-11-27T08:50:20.598Z,97975.30
2017-11-27T08:52:46.811Z,97977.08
2017-11-27T08:55:12.976Z,97964.91
2017-11-27T08:57:39.152Z,97972.25
2017-11-27T09:00:05.881Z,97969.89
2017-11-27T09:02:32.050Z,97964.34
2017-11-27T09:04:58.560Z,97968.42
2017-11-27T09:07:24.690Z,97970.59
2017-11-27T09:09:50.873Z,97965.07
2017-11-27T09:12:17.417Z,97965.21
2017-11-27T09:14:43.563Z,97965.08
2017-11-27T09:17:09.850Z,97963.24
2017-11-27T09:19:36.018Z,97962.73
2017-11-27T09:22:02.273Z,97954.72
2017-11-27T09:24:28.603Z,97952.72
2017-11-27T09:26:55.891Z,97955.89
2017-11-27T09:29:22.346Z,97958.39
2017-11-27T09:31:48.597Z,97957.25
2017-11-27T09:34:14.817Z,97951.80
2017-11-27T09:36:41.369Z,97955.09
2017-11-27T09:39:07.478Z,97949.25
2017-11-27T09:41:33.585Z,97952.63
2017-11-27T09:43:59.764Z,97950.23
2017-11-27T09:46:25.929Z,97942.88
2017-11-27T09:48:52.103Z,97948.75
2017-11-27T09:51:18.391Z,97946.73
2017-11-27T09:53:44.598Z,97943.52
2017-11-27T09:56:11.065Z,97935.59
2017-11-27T09:58:37.309Z,97931.72
2017-11-27T10:01:03.421Z,97931.50
2017-11-27T10:03:29.669Z,97918.47
2017-11-27T10:05:55.861Z,97915.80
2017-11-27T10:08:22.095Z,97913.94
2017-11-27T10:10:48.280Z,97918.89
2017-11-27T10:13:14.868Z,97918.02
2017-11-27T10:15:41.223Z,97907.83
2017-11-27T10:18:09.374Z,97902.27
2017-11-27T10:20:36.080Z,97899.00
2017-11-27T10:23:02.233Z,97897.39
2017-11-27T10:25:28.390Z,97893.56
2017-11-27T10:27:54.418Z,97897.89
2017-11-27T10:30:20.654Z,97890.49
2017-11-27T10:32:47.184Z,97886.52
2017-11-27T10:35:13.446Z,97885.39
2017-11-27T10:37:40.097Z,97877.41
2017-11-27T10:40:06.309Z,97875.83
2017-11-27T10:42:32.456Z,97872.94
2017-11-27T10:44:58.787Z,97874.29
2017-11-27T10:47:24.924Z,97866.50
2017-11-27T10:49:51.001Z,97865.72
2017-11-27T10:52:17.141Z,97856.21
2017-11-27T10:54:43.221Z,97853.99
2017-11-27T10:57:09.676Z,97846.00
2017-11-27T10:59:35.754Z,97840.19
2017-11-27T11:02:01.946Z,97839.09
2017-11-27T11:04:28.233Z,97843.90
2017-11-27T11:06:54.323Z,97838.56
2017-11-27T11:09:20.350Z,97829.98
2017-11-27T11:11:46.491Z,97831.73
2017-11-27T11:14:12.605Z,97823.66
2017-11-27T11:16:38.946Z,97818.66
2017-11-27T11:19:05.210Z,97819.19
2017-11-27T11:21:31.760Z,97812.62
2017-11-27T11:23:57.944Z,97810.55
2017-11-27T11:26:24.071Z,97801.36
2017-11-27T11:28:50.213Z,97801.20
2017-11-27T11:31:16.583Z,97799.64
2017-11-27T11:33:43.099Z,97793.38
2017-11-27T11:36:09.311Z,97782.75
2017-11-27T11:38:35.489Z,97775.28
2017-11-27T11:41:02.592Z,97777.31
2017-11-27T11:43:28.677Z,97772.11
2017-11-27T11:45:54.793Z,97763.55
2017-11-27T11:48:21.300Z,97764.19
2017-11-27T11:50:48.689Z,97761.28
2017-11-27T11:53:15.195Z,97754.78
2017-11-27T11:55:43.129Z,97755.05
2017-11-27T11:58:11.833Z,97742.75
2017-11-27T12:00:39.532Z,97735.63
2017-11-27T12:03:05.982Z,97731.26
2017-11-27T12:05:32.454Z,97732.39
2017-11-27T12:08:00.044Z,97724.23
2017-11-27T12:10:26.587Z,97707.13
2017-11-27T12:12:53.271Z,97710.80
2017-11-27T12:15:19.899Z,97720.13
2017-11-27T12:17:46.700Z,97707.23
2017-11-27T12:20:13.498Z,97703.02
2017-11-27T12:22:40.032Z,97690.11
2017-11-27T12:25:06.669Z,97687.41
2017-11-27T12:27:33.037Z,97684.60
2017-11-27T12:29:59.629Z,97675.64
2017-11-27T12:32:25.993Z,97683.48
2017-11-27T12:34:52.551Z,97680.88
2017-11-27T12:37:19.369Z,97676.69
2017-11-27T12:39:45.830Z,97673.84
2017-11-27T12:42:11.993Z,97678.97
2017-11-27T12:44:38.332Z,97669.37
2017-11-27T12:47:04.513Z,97671.70
2017-11-27T12:49:30.917Z,97670.17
2017-11-27T12:51:58.046Z,97666.70
2017-11-27T12:54:24.064Z,97662.27
2017-11-27T12:56:50.249Z,97662.16
2017-11-27T12:59:16.520Z,97653.78
2017-11-27T13:01:42.654Z,97652.45
2017-11-27T13:04:08.929Z,97646.73
2017-11-27T13:06:35.302Z,97643.81
2017-11-27T13:09:01.608Z,97630.88
2017-11-27T13:11:29.054Z,97627.77
2017-11-27T13:13:55.527Z,97615.91
2017-11-27T13:16:21.702Z,97623.91
2017-11-27T13:18:47.893Z,97612.59
2017-11-27T13:21:14.196Z,97608.53
2017-11-27T13:23:40.487Z,97602.62
2017-11-27T13:26:07.092Z,97602.53
2017-11-27T13:28:33.168Z,97598.16
2017-11-27T13:30:59.448Z,97595.90
2017-11-27T13:33:26.042Z,97592.98
2017-11-27T13:35:52.400Z,97594.29
2017-11-27T13:38:18.485Z,97594.70
2017-11-27T13:40:44.659Z,97595.67
2017-11-27T13:43:11.542Z,97599.02
2017-11-27T13:45:37.733Z,97590.94
2017-11-27T13:48:03.983Z,97590.97
2017-11-27T13:50:30.150Z,97584.65
2017-11-27T13:52:56.365Z,97582.91
2017-11-27T13:55:22.871Z,97575.33
2017-11-27T13:57:49.138Z,97580.31
2017-11-27T14:00:15.666Z,97572.41
2017-11-27T14:02:43.368Z,97567.10
2017-11-27T14:05:09.973Z,97567.39
2017-11-27T14:07:36.442Z,97567.28
2017-11-27T14:10:02.937Z,97568.72
2017-11-27T14:12:29.449Z,97569.63
2017-11-27T14:14:55.737Z,97569.19
2017-11-27T14:17:22.327Z,97566.69
2017-11-27T14:19:48.423Z,97569.72
2017-11-27T14:25:06.064Z,97568.22
2017-11-27T14:27:32.399Z,97563.78
2017-11-27T14:29:59.617Z,97565.96
2017-11-27T14:32:26.319Z,97562.69
2017-11-27T14:34:52.821Z,97563.86
2017-11-27T14:37:19.094Z,97566.88
2017-11-27T14:39:45.347Z,97557.19
2017-11-27T14:42:12.645Z,97561.00
2017-11-27T14:44:40.173Z,97556.70
2017-11-27T14:47:07.050Z,97558.73
2017-11-27T14:49:33.286Z,97549.78
2017-11-27T14:51:59.369Z,97546.83
2017-11-27T14:54:25.638Z,97556.68
2017-11-27T14:56:52.095Z,97556.48
2017-11-27T14:59:18.283Z,97552.72
2017-11-27T15:01:44.600Z,97553.38
2017-11-27T15:04:11.317Z,97556.58
2017-11-27T15:06:37.451Z,97558.54
2017-11-27T15:09:03.710Z,97552.16
2017-11-27T15:11:29.797Z,97549.85
2017-11-27T15:13:56.058Z,97552.64
2017-11-27T15:16:22.556Z,97549.71
2017-11-27T15:18:51.247Z,97541.98
2017-11-27T15:21:17.532Z,97542.16
2017-11-27T15:23:44.451Z,97538.05
2017-11-27T15:26:10.728Z,97531.58
2017-11-27T15:28:37.066Z,97536.56
2017-11-27T15:31:03.603Z,97534.87
2017-11-27T15:33:31.066Z,97527.14
2017-11-27T15:35:57.263Z,97522.09
2017-11-27T15:38:23.515Z,97521.78
2017-11-27T15:40:50.881Z,97527.00
2017-11-27T15:43:18.646Z,97520.30
2017-11-27T15:45:45.469Z,97521.92
2017-11-27T15:48:11.636Z,97524.45
2017-11-27T15:50:37.875Z,97514.00
2017-11-27T15:53:04.181Z,97517.16
2017-11-27T15:55:30.565Z,97510.60
2017-11-27T15:57:56.959Z,97509.59
2017-11-27T16:00:23.145Z,97505.50
2017-11-27T16:02:49.408Z,97506.33
2017-11-27T16:05:15.749Z,97506.03
2017-11-27T16:07:41.994Z,97505.05
2017-11-27T16:10:09.198Z,97504.78
2017-11-27T16:12:35.541Z,97501.28
2017-11-27T16:15:01.709Z,97493.47
2017-11-27T16:17:27.835Z,97486.98
2017-11-27T16:19:53.961Z,97476.91
2017-11-27T16:22:21.964Z,97478.73
2017-11-27T16:24:49.086Z,97471.50
2017-11-27T16:27:15.415Z,97476.13
2017-11-27T16:29:41.562Z,97486.88
2017-11-27T16:32:07.696Z,97481.56
2017-11-27T16:34:33.993Z,97479.98
2017-11-27T16:37:00.362Z,97479.85
2017-11-27T16:39:26.513Z,97475.14
2017-11-27T16:41:52.790Z,97468.49
2017-11-27T16:44:19.017Z,97472.09
2017-11-27T16:46:49.966Z,97465.34
2017-11-27T16:49:26.205Z,97470.39
2017-11-27T16:51:52.754Z,97467.00
2017-11-27T16:54:37.547Z,97461.52
2017-11-27T16:57:10.995Z,97454.00
2017-11-27T17:05:14.151Z,97459.82
2017-11-27T17:07:40.371Z,97458.95
2017-11-27T17:10:06.603Z,97462.88
2017-11-27T17:12:32.913Z,97457.46
2017-11-27T17:14:59.197Z,97452.05
2017-11-27T17:17:25.511Z,97449.52
2017-11-27T17:19:51.926Z,97444.80
2017-11-27T17:22:18.506Z,97442.20
2017-11-27T17:24:44.758Z,97438.31
2017-11-27T17:27:10.941Z,97433.89
2017-11-27T17:29:37.498Z,97432.83
2017-11-27T17:32:03.864Z,97435.85
2017-11-27T17:34:29.949Z,97432.66
2017-11-27T17:36:56.097Z,97433.30
2017-11-27T17:39:22.399Z,97429.03
2017-11-27T17:41:48.771Z,97424.05
2017-11-27T17:44:15.253Z,97419.52
2017-11-27T17:46:41.449Z,97415.83
2017-11-27T17:49:08.058Z,97414.91
2017-11-27T17:51:34.352Z,97416.80
2017-11-27T17:54:01.730Z,97401.97
2017-11-27T17:56:28.559Z,97406.12
2017-11-27T17:58:55.172Z,97403.93
2017-11-27T18:01:21.456Z,97398.45
2017-11-27T18:03:48.000Z,97396.65
2017-11-27T18:06:14.248Z,97391.50
2017-11-27T18:08:40.915Z,97390.70
2017-11-27T18:11:07.338Z,97395.82
2017-11-27T18:13:33.629Z,97391.56
2017-11-27T18:15:59.989Z,97381.85
2017-11-27T18:18:26.306Z,97377.86
2017-11-27T18:20:52.846Z,97378.73
2017-11-27T18:23:19.129Z,97373.66
2017-11-27T18:25:45.342Z,97368.98
2017-11-27T18:28:12.841Z,97368.82
2017-11-27T18:30:39.295Z,97365.43
2017-11-27T18:33:05.766Z,97364.56
2017-11-27T18:35:32.078Z,97366.03
2017-11-27T18:37:58.541Z,97365.63
2017-11-27T18:40:25.462Z,97357.89
2017-11-27T18:42:52.009Z,97354.43
2017-11-27T18:45:18.403Z,97346.95
2017-11-27T18:47:44.795Z,97342.39
2017-11-27T18:50:11.169Z,97342.56
2017-11-27T18:52:37.398Z,97334.22
2017-11-27T18:55:03.902Z,97337.95
2017-11-27T18:57:30.157Z,97332.16
2017-11-27T18:59:56.517Z,97330.56
2017-11-27T19:02:22.738Z,97328.14
2017-11-27T19:04:48.993Z,97329.30
2017-11-27T19:07:15.413Z,97331.36
2017-11-27T19:09:41.645Z,97328.80
2017-11-27T19:12:08.151Z,97326.11
2017-11-27T19:14:34.501Z,97323.13
2017-11-27T19:17:00.718Z,97320.16
2017-11-27T19:19:28.899Z,97317.91
2017-11-27T19:21:55.117Z,97315.44
2017-11-27T19:24:24.378Z,97307.52
2017-11-27T19:26:50.698Z,97305.16
2017-11-27T19:29:17.774Z,97305.16
2017-11-27T19:31:44.032Z,97305.47
2017-11-27T19:34:10.335Z,97306.40
2017-11-27T19:36:36.666Z,97306.40
2017-11-27T19:39:03.923Z,97300.61
2017-11-27T19:41:30.057Z,97300.02
2017-11-27T19:43:56.329Z,97286.59
2017-11-27T19:46:22.642Z,97283.70
2017-11-27T19:48:49.102Z,97282.37
2017-11-27T19:51:15.253Z,97282.08
2017-11-27T19:53:41.733Z,97278.62
2017-11-27T19:56:08.699Z,97272.94
2017-11-27T19:58:35.308Z,97265.92
2017-11-27T20:01:03.806Z,97266.56
2017-11-27T20:03:30.494Z,97253.27
2017-11-27T20:05:57.244Z,97253.09
2017-11-27T20:08:23.964Z,97249.61
2017-11-27T20:10:50.349Z,97258.74
2017-11-27T20:13:16.750Z,97245.37
2017-11-27T20:15:43.397Z,97248.66
2017-11-27T20:18:10.014Z,97243.88
2017-11-27T20:20:36.300Z,97237.59
2017-11-27T20:23:03.013Z,97233.74
2017-11-27T20:25:29.715Z,97233.34
2017-11-27T20:27:56.289Z,97227.23
2017-11-27T20:30:24.050Z,97228.09
2017-11-27T20:32:50.334Z,97232.72
2017-11-27T20:35:16.701Z,97227.64
2017-11-27T20:37:43.073Z,97221.89
2017-11-27T20:40:09.302Z,97217.38
2017-11-27T20:42:35.563Z,97214.55
2017-11-27T20:45:02.081Z,97218.17
2017-11-27T20:47:28.337Z,97212.48
2017-11-27T20:49:54.637Z,97205.11
2017-11-27T20:52:20.821Z,97204.95
2017-11-27T20:54:47.281Z,97205.59
2017-11-27T20:57:13.408Z,97198.66
2017-11-27T20:59:39.835Z,97192.58
2017-11-27T21:02:06.155Z,97192.72
2017-11-27T21:04:32.581Z,97190.42
2017-11-27T21:06:58.889Z,97190.42
2017-11-27T21:09:25.249Z,97194.17
2017-11-27T21:11:51.393Z,97188.28
2017-11-27T21:14:17.725Z,97189.37
2017-11-27T21:16:43.961Z,97184.91
2017-11-27T21:19:10.146Z,97185.45
2017-11-27T21:21:36.319Z,97185.55
2017-11-27T21:24:02.766Z,97177.65
2017-11-27T21:26:29.155Z,97171.63
2017-11-27T21:28:55.533Z,97169.05
2017-11-27T21:31:21.714Z,97164.39
2017-11-27T21:33:47.820Z,97164.09
2017-11-27T21:36:14.324Z,97161.17
2017-11-27T21:38:40.507Z,97156.83
2017-11-27T21:41:06.626Z,97151.44
2017-11-27T21:43:32.874Z,97152.41
2017-11-27T21:45:59.526Z,97151.94
2017-11-27T21:48:25.680Z,97148.26
2017-11-27T21:50:51.903Z,97150.92
2017-11-27T21:53:18.771Z,97147.97
2017-11-27T21:55:44.797Z,97139.88
2017-11-27T21:58:10.967Z,97145.38
2017-11-27T22:00:37.441Z,97144.33
2017-11-27T22:03:04.070Z,97137.85
2017-11-27T22:05:30.279Z,97124.77
2017-11-27T22:07:56.405Z,97124.88
2017-11-27T22:10:22.566Z,97120.78
2017-11-27T22:12:48.895Z,97113.53
2017-11-27T22:15:15.157Z,97108.97
2017-11-27T22:17:41.270Z,97102.25
2017-11-27T22:20:07.393Z,97095.14
2017-11-27T22:22:33.679Z,97098.33
2017-11-27T22:24:59.949Z,97099.13
2017-11-27T22:27:26.301Z,97092.34
2017-11-27T22:29:52.636Z,97092.23
2017-11-27T22:32:18.847Z,97080.34
2017-11-27T22:34:45.159Z,97084.97
2017-11-27T22:37:11.406Z,97073.61
2017-11-27T22:39:38.192Z,97064.52
2017-11-27T22:42:04.438Z,97059.38
2017-11-27T22:44:30.470Z,97063.55
2017-11-27T22:46:56.593Z,97054.31
2017-11-27T22:49:22.704Z,97054.42
2017-11-27T22:51:49.872Z,97050.07
2017-11-27T22:54:15.927Z,97040.52
2017-11-27T22:56:41.997Z,97040.33
2017-11-27T22:59:08.127Z,97029.70
2017-11-27T23:01:34.238Z,97038.39
2017-11-27T23:04:00.393Z,97029.63
2017-11-27T23:06:26.456Z,97025.50
2017-11-27T23:08:52.653Z,97020.50
2017-11-27T23:11:18.697Z,97025.06
2017-11-27T23:13:44.951Z,97020.42
2017-11-27T23:16:11.030Z,97010.80
2017-11-27T23:18:37.184Z,97013.09
2017-11-27T23:21:03.421Z,97003.64
2017-11-27T23:23:29.608Z,97004.39
2017-11-27T23:25:55.641Z,96999.66
2017-11-27T23:28:22.097Z,96997.39
2017-11-27T23:30:48.810Z,96994.84
2017-11-27T23:33:15.148Z,96996.28
2017-11-27T23:35:41.676Z,96991.33
2017-11-27T23:38:07.759Z,96988.38
2017-11-27T23:40:33.941Z,96986.33
2017-11-27T23:43:00.145Z,96975.70
2017-11-27T23:45:26.162Z,96976.14
2017-11-27T23:47:52.494Z,96981.38
2017-11-27T23:50:18.560Z,96976.39
2017-11-27T23:52:44.916Z,96964.86
2017-11-27T23:55:11.112Z,96957.04
2017-11-27T23:57:37.289Z,96955.42
